Time;durP1;ratioP1;P1;durP2;ratioP2;P2;SDS_P1;SDS_P2;PMS_P1;PMS_P2;Temp;Humidity;BMP_temperature;BMP_pressure;BME280_temperature;BME280_humidity;BME280_pressure;Samples;Min_cycle;Max_cycle;Signal;HPM_P1;HPM_P2
2023/11/25 00:01:02;;;;;;;0.20;0.20;;;2.00;99.90;1.60;98747.00;;;;4942010;28;89174;-69
2023/11/25 00:03:28;;;;;;;0.30;0.20;;;1.90;99.90;1.60;98747.00;;;;4955933;28;87783;-69
2023/11/25 00:05:54;;;;;;;0.20;0.20;;;1.90;99.90;1.60;98760.00;;;;4945516;28;87949;-67
2023/11/25 00:08:20;;;;;;;0.10;0.10;;;1.90;99.90;1.60;98765.00;;;;4955107;28;88408;-68
2023/11/25 00:10:47;;;;;;;0.60;0.50;;;1.80;99.90;1.60;98778.00;;;;4951479;28;87830;-68
2023/11/25 00:13:15;;;;;;;1.47;0.40;;;2.00;99.90;1.60;98784.00;;;;4952521;28;87820;-68
2023/11/25 00:15:40;;;;;;;0.20;0.20;;;2.00;99.90;1.60;98791.00;;;;4952459;28;89141;-68
2023/11/25 00:18:07;;;;;;;0.37;0.23;;;2.00;99.90;1.60;98795.00;;;;4952141;28;111874;-68
2023/11/25 00:20:36;;;;;;;0.27;0.20;;;2.00;99.90;1.70;98796.00;;;;4951604;28;89083;-68
2023/11/25 00:23:04;;;;;;;0.20;0.20;;;2.00;99.90;1.60;98807.00;;;;4953911;28;87758;-68
2023/11/25 00:25:30;;;;;;;0.33;0.30;;;1.90;99.90;1.70;98809.00;;;;4951150;28;90081;-69
2023/11/25 00:27:56;;;;;;;8.40;0.40;;;1.90;99.90;1.60;98816.00;;;;4951364;28;88593;-69
2023/11/25 00:30:23;;;;;;;0.83;0.30;;;1.90;99.90;1.60;98815.00;;;;4952868;28;101308;-67
2023/11/25 00:32:50;;;;;;;0.20;0.20;;;1.90;99.90;1.60;98828.00;;;;4951798;28;86975;-68
2023/11/25 00:35:16;;;;;;;0.67;0.50;;;1.90;99.90;1.60;98843.00;;;;4952733;28;97161;-68
2023/11/25 00:37:42;;;;;;;0.40;0.30;;;1.90;99.90;1.60;98844.00;;;;4948297;28;117196;-67
2023/11/25 00:40:16;;;;;;;0.40;0.40;;;1.90;99.90;1.60;98839.00;;;;4950998;28;88940;-67
2023/11/25 00:42:46;;;;;;;0.50;0.30;;;2.00;99.90;1.60;98858.00;;;;4953778;28;87775;-67
2023/11/25 00:45:14;;;;;;;2.43;0.50;;;1.80;99.90;1.60;98872.00;;;;4953106;28;87922;-68
2023/11/25 00:47:40;;;;;;;0.30;0.30;;;1.80;99.90;1.60;98871.00;;;;4957062;28;87861;-67
2023/11/25 00:50:10;;;;;;;0.40;0.40;;;1.80;99.90;1.50;98884.00;;;;4950304;28;89265;-67
2023/11/25 00:52:37;;;;;;;0.47;0.43;;;1.80;99.90;1.60;98884.00;;;;4957547;28;87860;-67
2023/11/25 00:55:04;;;;;;;0.57;0.37;;;1.90;99.90;1.50;98892.00;;;;4950561;28;87903;-67
2023/11/25 00:57:30;;;;;;;0.70;0.70;;;1.80;99.90;1.60;98910.00;;;;4951312;28;87648;-68
2023/11/25 00:59:56;;;;;;;0.50;0.50;;;1.80;99.90;1.60;98905.00;;;;4952991;28;88094;-67
2023/11/25 01:02:22;;;;;;;1.03;0.60;;;1.80;99.90;1.50;98911.00;;;;4955256;28;110221;-67
2023/11/25 01:04:47;;;;;;;0.40;0.40;;;1.80;99.90;1.50;98923.00;;;;4953563;28;108674;-68
2023/11/25 01:07:13;;;;;;;0.30;0.30;;;1.80;99.90;1.60;98931.00;;;;4953317;28;92876;-68
2023/11/25 01:09:39;;;;;;;1.47;0.60;;;1.90;99.90;1.60;98938.00;;;;4951243;28;88740;-66
2023/11/25 01:12:07;;;;;;;0.80;0.50;;;1.80;99.90;1.60;98941.00;;;;4954386;28;87881;-68
2023/11/25 01:14:32;;;;;;;0.30;0.30;;;1.90;99.90;1.60;98936.00;;;;4951018;28;87834;-68
2023/11/25 01:17:00;;;;;;;0.40;0.20;;;1.90;99.90;1.60;98957.00;;;;4952405;28;118603;-66
2023/11/25 01:19:27;;;;;;;0.40;0.40;;;1.90;99.90;1.50;98957.00;;;;4953763;28;88518;-67
2023/11/25 01:21:53;;;;;;;2.10;1.17;;;1.80;99.90;1.50;98957.00;;;;4953069;28;87452;-67
2023/11/25 01:24:19;;;;;;;0.50;0.40;;;1.80;99.90;1.50;98961.00;;;;4955855;28;87800;-66
2023/11/25 01:26:45;;;;;;;0.63;0.60;;;1.80;99.90;1.50;98971.00;;;;4953916;28;117200;-67
2023/11/25 01:29:10;;;;;;;2.10;0.60;;;1.70;99.90;1.40;98966.00;;;;4949072;28;116639;-67
2023/11/25 01:31:36;;;;;;;0.70;0.63;;;1.70;99.90;1.40;98985.00;;;;4951619;28;88043;-66
2023/11/25 01:34:01;;;;;;;0.83;0.67;;;1.80;99.90;1.40;98986.00;;;;4951687;28;109109;-67
2023/11/25 01:36:27;;;;;;;2.40;0.60;;;1.80;99.90;1.40;98985.00;;;;4951982;28;89107;-68
2023/11/25 01:38:54;;;;;;;2.13;0.33;;;1.60;99.90;1.20;98987.00;;;;4946216;28;110493;-67
2023/11/25 01:41:19;;;;;;;0.50;0.50;;;1.50;99.90;1.20;98991.00;;;;4955561;28;87996;-67
2023/11/25 01:43:45;;;;;;;0.40;0.37;;;1.50;99.90;1.10;98990.00;;;;4948003;28;88053;-66
2023/11/25 01:46:25;;;;;;;0.40;0.40;;;1.40;99.90;1.00;99006.00;;;;4953364;28;116814;-65
2023/11/25 01:48:52;;;;;;;0.73;0.47;;;1.40;99.90;1.00;98998.00;;;;4954591;28;89691;-66
2023/11/25 01:51:17;;;;;;;1.70;0.60;;;1.40;99.90;1.00;99011.00;;;;4952565;28;87920;-65
2023/11/25 01:53:43;;;;;;;0.20;0.20;;;1.30;99.90;1.00;99012.00;;;;4943655;28;108227;-67
2023/11/25 01:56:09;;;;;;;0.80;0.53;;;1.30;99.90;1.00;99016.00;;;;4950389;28;89106;-66
2023/11/25 01:58:38;;;;;;;2.23;0.53;;;1.30;99.90;1.00;99011.00;;;;4945829;28;87953;-65
2023/11/25 02:01:04;;;;;;;0.60;0.50;;;1.30;99.90;1.00;99020.00;;;;4947715;28;88018;-67
2023/11/25 02:03:31;;;;;;;0.70;0.53;;;1.30;99.90;0.90;99020.00;;;;4948263;28;93567;-67
2023/11/25 02:05:57;;;;;;;1.40;0.47;;;1.80;99.90;0.80;99017.00;;;;4949464;28;89207;-67
2023/11/25 02:08:22;;;;;;;0.40;0.40;;;1.20;99.90;0.70;99032.00;;;;4949269;28;116699;-66
2023/11/25 02:10:48;;;;;;;1.07;0.37;;;1.10;99.90;0.80;99027.00;;;;4953887;28;99273;-66
2023/11/25 02:13:13;;;;;;;0.73;0.50;;;1.10;99.90;0.80;99030.00;;;;4949928;28;107690;-66
2023/11/25 02:15:40;;;;;;;1.73;1.07;;;1.10;99.90;0.80;99034.00;;;;4946470;28;117942;-65
2023/11/25 02:18:07;;;;;;;0.67;0.67;;;1.10;99.90;0.90;99040.00;;;;4949206;28;89189;-66
2023/11/25 02:20:40;;;;;;;0.63;0.40;;;1.20;99.90;0.90;99031.00;;;;4947574;28;87903;-67
2023/11/25 02:23:19;;;;;;;1.10;1.00;;;1.30;99.90;1.00;99043.00;;;;4942505;28;88229;-67
2023/11/25 02:25:49;;;;;;;0.60;0.50;;;1.30;99.90;1.00;99047.00;;;;4954367;28;88292;-67
2023/11/25 02:28:16;;;;;;;2.00;1.37;;;1.30;99.90;1.00;99055.00;;;;4943046;28;88873;-68
2023/11/25 02:30:46;;;;;;;0.43;0.43;;;1.20;99.90;1.10;99064.00;;;;4953208;28;87930;-68
2023/11/25 02:33:14;;;;;;;2.20;0.80;;;1.30;99.90;1.10;99059.00;;;;4956605;28;87693;-68
2023/11/25 02:35:43;;;;;;;0.73;0.50;;;1.20;99.90;1.10;99072.00;;;;4950155;28;87653;-67
2023/11/25 02:38:12;;;;;;;1.10;0.50;;;1.30;99.90;1.10;99076.00;;;;4951181;28;103716;-67
2023/11/25 02:40:48;;;;;;;0.50;0.50;;;1.40;99.90;1.20;99084.00;;;;4947259;28;103297;-67
2023/11/25 02:43:16;;;;;;;0.80;0.53;;;1.40;99.90;1.20;99077.00;;;;4953552;28;89193;-68
2023/11/25 02:45:42;;;;;;;14.13;0.87;;;1.50;99.90;1.30;99090.00;;;;4949600;28;88520;-67
2023/11/25 02:48:09;;;;;;;1.07;0.97;;;2.20;99.90;1.30;99086.00;;;;4954185;28;88605;-67
2023/11/25 02:50:35;;;;;;;0.60;0.60;;;2.50;99.90;1.30;99104.00;;;;4945819;28;87527;-68
2023/11/25 02:53:01;;;;;;;2.63;0.90;;;1.60;99.90;1.30;99096.00;;;;4951671;28;107907;-67
2023/11/25 02:55:26;;;;;;;1.00;0.80;;;1.50;99.90;1.30;99098.00;;;;4948345;28;107605;-68
2023/11/25 02:57:52;;;;;;;0.97;0.87;;;1.50;99.90;1.30;99107.00;;;;4949797;28;98177;-67
2023/11/25 03:00:28;;;;;;;5.20;0.37;;;1.60;99.90;1.40;99100.00;;;;4950543;28;109809;-67
2023/11/25 03:05:50;;;;;;;0.30;0.30;;;1.70;99.90;1.40;99103.00;;;;4952530;28;87906;-68
2023/11/25 03:08:18;;;;;;;0.80;0.70;;;1.80;99.90;1.40;99111.00;;;;4949539;28;88864;-69
2023/11/25 03:10:47;;;;;;;0.70;0.70;;;1.70;99.90;1.40;99121.00;;;;4952529;28;87760;-68
2023/11/25 03:13:14;;;;;;;0.40;0.40;;;1.80;99.90;1.40;99119.00;;;;4950333;28;89847;-67
2023/11/25 03:15:41;;;;;;;1.90;0.53;;;1.60;99.90;1.40;99111.00;;;;4953980;28;89519;-68
2023/11/25 03:18:07;;;;;;;0.50;0.50;;;1.60;99.90;1.40;99123.00;;;;4944120;28;87846;-66
2023/11/25 03:20:40;;;;;;;0.40;0.40;;;1.70;99.90;1.40;99119.00;;;;4953269;28;99286;-69
2023/11/25 03:23:09;;;;;;;0.83;0.70;;;1.70;99.90;1.40;99126.00;;;;4948068;28;88181;-69
2023/11/25 03:25:34;;;;;;;1.03;0.60;;;1.70;99.90;1.30;99125.00;;;;4952720;28;88284;-69
2023/11/25 03:28:10;;;;;;;2.20;0.53;;;1.60;99.90;1.30;99137.00;;;;4953481;28;94988;-68
2023/11/25 03:30:35;;;;;;;0.40;0.40;;;1.60;99.90;1.30;99142.00;;;;4948724;28;88232;-68
2023/11/25 03:33:01;;;;;;;1.47;0.60;;;1.70;99.90;1.30;99139.00;;;;4946663;28;108810;-67
2023/11/25 03:35:27;;;;;;;1.13;0.73;;;1.70;99.90;1.30;99145.00;;;;4953472;28;89005;-67
2023/11/25 03:37:53;;;;;;;0.20;0.20;;;1.60;99.90;1.30;99144.00;;;;4953446;28;87722;-67
2023/11/25 03:40:19;;;;;;;1.77;0.33;;;1.00;99.90;1.30;99143.00;;;;4952488;28;87841;-69
2023/11/25 03:42:45;;;;;;;0.40;0.40;;;1.50;99.90;1.30;99151.00;;;;4952045;28;87752;-69
2023/11/25 03:45:13;;;;;;;0.70;0.60;;;1.50;99.90;1.20;99143.00;;;;4950696;28;113397;-68
2023/11/25 03:47:41;;;;;;;1.00;0.83;;;1.50;99.90;1.20;99147.00;;;;4949386;28;116136;-70
2023/11/25 03:50:08;;;;;;;0.90;0.53;;;1.50;99.90;1.20;99147.00;;;;4948065;28;87264;-69
2023/11/25 03:52:34;;;;;;;2.00;0.97;;;1.50;99.90;1.20;99145.00;;;;4948663;28;87595;-69
2023/11/25 03:55:02;;;;;;;2.20;0.73;;;1.50;99.90;1.20;99151.00;;;;4946946;28;108760;-68
2023/11/25 03:57:28;;;;;;;8.17;0.97;;;1.50;99.90;1.20;99161.00;;;;4950888;28;92203;-67
2023/11/25 03:59:54;;;;;;;1.03;0.93;;;1.50;99.90;1.20;99159.00;;;;4950129;28;100345;-67
2023/11/25 04:02:20;;;;;;;1.80;0.97;;;1.50;99.90;1.20;99163.00;;;;4950181;28;108138;-69
2023/11/25 04:04:45;;;;;;;1.20;0.97;;;1.40;99.90;1.20;99179.00;;;;4952381;28;117455;-67
2023/11/25 04:07:12;;;;;;;0.70;0.70;;;1.50;99.90;1.20;99177.00;;;;4954140;28;88173;-66
2023/11/25 04:09:37;;;;;;;1.93;0.63;;;1.60;99.90;1.30;99189.00;;;;4953367;28;99275;-68
2023/11/25 04:12:03;;;;;;;0.60;0.60;;;1.60;99.90;1.30;99178.00;;;;4954711;28;87880;-68
2023/11/25 04:14:29;;;;;;;0.73;0.63;;;1.60;99.90;1.30;99181.00;;;;4951696;28;87494;-68
2023/11/25 04:16:58;;;;;;;1.07;0.80;;;1.60;99.90;1.40;99185.00;;;;4945916;28;117529;-68
2023/11/25 04:19:24;;;;;;;2.67;1.23;;;1.70;99.90;1.40;99176.00;;;;4953749;28;91903;-66
2023/11/25 04:21:50;;;;;;;0.80;0.67;;;1.70;99.90;1.40;99176.00;;;;4953811;28;88809;-67
2023/11/25 04:24:19;;;;;;;1.40;0.73;;;1.70;99.90;1.40;99184.00;;;;4951032;28;89203;-68
2023/11/25 04:26:45;;;;;;;3.73;1.50;;;1.60;99.90;1.40;99192.00;;;;4951595;28;88797;-66
2023/11/25 04:29:11;;;;;;;5.63;1.20;;;1.70;99.90;1.40;99191.00;;;;4951465;28;87675;-66
2023/11/25 04:31:37;;;;;;;1.20;0.67;;;1.70;99.90;1.40;99195.00;;;;4954329;28;109810;-66
2023/11/25 04:34:05;;;;;;;2.23;0.60;;;1.60;99.90;1.40;99196.00;;;;4955099;28;88420;-66
2023/11/25 04:36:31;;;;;;;1.00;0.90;;;1.70;99.90;1.40;99205.00;;;;4956629;28;88850;-68
2023/11/25 04:38:59;;;;;;;2.50;1.33;;;1.70;99.90;1.40;99199.00;;;;4936027;28;87433;-66
2023/11/25 04:41:26;;;;;;;1.27;0.90;;;1.60;99.90;1.40;99211.00;;;;4952049;28;87814;-66
2023/11/25 04:43:51;;;;;;;1.40;0.80;;;1.70;99.90;1.40;99206.00;;;;4954157;28;89141;-67
2023/11/25 04:46:17;;;;;;;1.63;0.80;;;1.80;99.90;1.50;99208.00;;;;4951606;28;116575;-67
2023/11/25 04:48:43;;;;;;;0.80;0.80;;;1.70;99.90;1.50;99211.00;;;;4953134;28;89499;-66
2023/11/25 04:51:09;;;;;;;3.27;1.03;;;1.70;99.90;1.50;99207.00;;;;4950626;28;87892;-66
2023/11/25 04:53:36;;;;;;;1.13;0.90;;;1.80;99.90;1.50;99209.00;;;;4954258;28;89034;-66
2023/11/25 04:56:04;;;;;;;4.53;0.70;;;1.70;99.90;1.50;99205.00;;;;4952362;28;88499;-67
2023/11/25 04:58:29;;;;;;;0.90;0.60;;;1.80;99.90;1.50;99217.00;;;;4951093;28;88291;-66
2023/11/25 05:00:57;;;;;;;1.83;0.80;;;1.80;99.90;1.60;99212.00;;;;4949100;28;107223;-65
2023/11/25 05:03:25;;;;;;;0.97;0.70;;;1.80;99.90;1.60;99212.00;;;;4956836;28;87339;-66
2023/11/25 05:05:51;;;;;;;1.43;0.53;;;1.90;99.90;1.60;99204.00;;;;4951086;28;87835;-66
2023/11/25 05:08:16;;;;;;;1.70;0.33;;;1.90;99.90;1.60;99203.00;;;;4951864;28;108258;-66
2023/11/25 05:10:42;;;;;;;0.77;0.73;;;1.80;99.90;1.60;99206.00;;;;4953105;28;89929;-66
2023/11/25 05:13:08;;;;;;;3.03;0.77;;;1.90;99.90;1.70;99220.00;;;;4956137;28;118440;-66
2023/11/25 05:15:35;;;;;;;2.47;0.90;;;1.80;99.90;1.70;99224.00;;;;4948774;28;115081;-65
2023/11/25 05:18:00;;;;;;;0.90;0.90;;;1.90;99.90;1.70;99230.00;;;;4958435;28;87880;-66
2023/11/25 05:20:26;;;;;;;1.03;0.80;;;2.00;99.90;1.70;99238.00;;;;4950750;28;107898;-66
2023/11/25 05:22:52;;;;;;;1.30;1.20;;;1.90;99.90;1.70;99228.00;;;;4949133;28;117329;-64
2023/11/25 05:25:17;;;;;;;1.40;1.30;;;2.50;99.90;1.70;99248.00;;;;4952643;28;118008;-66
2023/11/25 05:27:43;;;;;;;1.60;1.20;;;2.10;99.90;1.70;99242.00;;;;4956806;28;87401;-67
2023/11/25 05:30:13;;;;;;;2.87;1.30;;;1.50;99.90;1.70;99241.00;;;;4953686;28;88077;-66
2023/11/25 05:32:42;;;;;;;2.43;0.70;;;2.00;99.90;1.70;99242.00;;;;4955934;28;89057;-65
2023/11/25 05:35:09;;;;;;;0.87;0.80;;;2.00;99.90;1.80;99248.00;;;;4953335;28;89130;-65
2023/11/25 05:37:35;;;;;;;2.27;1.30;;;2.10;99.90;1.80;99260.00;;;;4958919;28;87910;-65
2023/11/25 05:40:00;;;;;;;0.63;0.63;;;2.10;99.90;1.80;99262.00;;;;4954007;28;87821;-66
2023/11/25 05:42:30;;;;;;;1.43;0.97;;;2.90;99.90;1.80;99258.00;;;;4952336;28;118000;-67
2023/11/25 05:44:58;;;;;;;4.00;0.90;;;2.10;99.90;1.80;99255.00;;;;4951127;28;87886;-65
2023/11/25 05:47:24;;;;;;;0.90;0.50;;;2.00;99.90;1.70;99258.00;;;;4950596;28;88288;-65
2023/11/25 05:49:49;;;;;;;3.27;1.13;;;2.00;99.90;1.70;99260.00;;;;4953434;28;110384;-65
2023/11/25 05:52:16;;;;;;;1.23;1.13;;;2.00;99.90;1.70;99263.00;;;;4950194;28;87311;-66
2023/11/25 05:54:47;;;;;;;1.17;0.73;;;2.00;99.90;1.70;99267.00;;;;4950867;28;87888;-67
2023/11/25 05:57:13;;;;;;;4.07;0.97;;;2.00;99.90;1.70;99266.00;;;;4948715;28;95630;-67
2023/11/25 05:59:39;;;;;;;1.17;0.80;;;2.00;99.90;1.70;99255.00;;;;4949000;28;88936;-66
2023/11/25 06:02:04;;;;;;;1.20;0.80;;;2.10;99.90;1.70;99271.00;;;;4950634;28;117485;-67
2023/11/25 06:04:30;;;;;;;2.30;1.03;;;2.00;99.90;1.70;99271.00;;;;4949767;28;88885;-65
2023/11/25 06:06:56;;;;;;;2.63;0.63;;;2.00;99.90;1.70;99265.00;;;;4951237;28;87969;-65
2023/11/25 06:09:21;;;;;;;1.27;1.10;;;2.00;99.90;1.70;99274.00;;;;4951825;28;108892;-67
2023/11/25 06:11:51;;;;;;;1.17;0.80;;;2.00;99.90;1.70;99293.00;;;;4951076;28;88063;-64
2023/11/25 06:14:19;;;;;;;2.13;1.50;;;2.10;99.90;1.70;99289.00;;;;4949196;28;87910;-67
2023/11/25 06:16:46;;;;;;;2.03;1.20;;;1.90;99.90;1.70;99290.00;;;;4947683;28;87283;-68
2023/11/25 06:19:13;;;;;;;5.03;1.10;;;2.00;99.90;1.70;99281.00;;;;4952462;28;87895;-65
2023/11/25 06:21:39;;;;;;;1.37;1.20;;;2.00;99.90;1.70;99289.00;;;;4950403;28;89558;-66
2023/11/25 06:24:06;;;;;;;1.23;0.93;;;1.90;99.90;1.70;99304.00;;;;4943199;28;90031;-65
2023/11/25 06:26:32;;;;;;;2.40;1.30;;;2.10;99.90;1.80;99316.00;;;;4943444;28;87705;-66
2023/11/25 06:28:57;;;;;;;4.43;1.57;;;2.10;99.90;1.70;99314.00;;;;4943722;28;107431;-66
2023/11/25 06:31:23;;;;;;;10.17;1.77;;;2.00;99.90;1.70;99311.00;;;;4944964;28;117764;-66
2023/11/25 06:33:49;;;;;;;1.07;0.93;;;2.10;99.90;1.70;99297.00;;;;4951084;28;91295;-66
2023/11/25 06:36:15;;;;;;;3.83;1.63;;;2.00;99.90;1.70;99318.00;;;;4946655;28;88214;-67
2023/11/25 06:38:41;;;;;;;0.83;0.70;;;2.10;99.90;1.70;99324.00;;;;4953404;28;108160;-67
2023/11/25 06:41:11;;;;;;;2.03;1.20;;;2.00;99.90;1.70;99325.00;;;;4945221;28;116640;-66
2023/11/25 06:43:38;;;;;;;1.67;1.03;;;2.00;99.90;1.70;99326.00;;;;4945999;28;87916;-65
2023/11/25 06:46:05;;;;;;;1.43;1.10;;;2.00;99.90;1.60;99324.00;;;;4949324;28;88228;-66
2023/11/25 06:48:31;;;;;;;2.00;1.30;;;1.90;99.90;1.60;99330.00;;;;4949650;28;89102;-65
2023/11/25 06:50:58;;;;;;;2.17;1.30;;;1.90;99.90;1.60;99327.00;;;;4948733;28;89117;-65
2023/11/25 06:53:23;;;;;;;4.60;1.37;;;1.90;99.90;1.50;99326.00;;;;4946600;28;115789;-67
2023/11/25 06:55:49;;;;;;;1.43;0.90;;;1.90;99.90;1.50;99335.00;;;;4944897;28;87919;-66
2023/11/25 06:58:15;;;;;;;2.33;0.83;;;1.80;99.90;1.50;99310.00;;;;4949621;28;88446;-65
2023/11/25 07:00:41;;;;;;;1.27;1.00;;;1.70;99.90;1.40;99317.00;;;;4947702;28;116348;-66
2023/11/25 07:03:08;;;;;;;4.33;1.37;;;1.80;99.90;1.40;99325.00;;;;4943678;28;97887;-66
2023/11/25 07:05:34;;;;;;;1.60;0.80;;;1.60;99.90;1.40;99320.00;;;;4951937;28;87193;-65
2023/11/25 07:08:01;;;;;;;0.83;0.73;;;1.60;99.90;1.30;99324.00;;;;4944903;28;87923;-66
2023/11/25 07:10:32;;;;;;;5.50;1.40;;;1.70;99.90;1.30;99328.00;;;;4948033;28;117827;-67
2023/11/25 07:12:59;;;;;;;8.37;0.90;;;1.80;99.90;1.30;99338.00;;;;4944677;28;88556;-66
2023/11/25 07:15:25;;;;;;;0.80;0.60;;;1.60;99.90;1.30;99336.00;;;;4948269;28;88016;-66
2023/11/25 07:17:51;;;;;;;1.17;0.90;;;1.60;99.90;1.30;99335.00;;;;4948559;28;101158;-65
2023/11/25 07:20:18;;;;;;;1.30;1.20;;;1.60;99.90;1.40;99338.00;;;;4949586;28;117153;-67
2023/11/25 07:22:44;;;;;;;7.70;1.13;;;1.70;99.90;1.40;99327.00;;;;4946690;28;87975;-65
2023/11/25 07:25:12;;;;;;;1.87;1.27;;;1.70;99.90;1.40;99330.00;;;;4952559;28;88268;-66
2023/11/25 07:27:45;;;;;;;1.57;1.20;;;1.70;99.90;1.40;99345.00;;;;4948459;28;88346;-65
2023/11/25 07:30:12;;;;;;;1.63;1.03;;;1.70;99.90;1.50;99350.00;;;;4946689;28;87796;-66
2023/11/25 07:32:38;;;;;;;0.97;0.93;;;1.70;99.90;1.50;99358.00;;;;4946257;28;88826;-65
2023/11/25 07:35:07;;;;;;;1.37;0.70;;;1.80;99.90;1.50;99352.00;;;;4952655;28;88152;-67
2023/11/25 07:37:34;;;;;;;0.93;0.80;;;1.80;99.90;1.50;99358.00;;;;4946258;28;88862;-66
2023/11/25 07:40:04;;;;;;;0.80;0.40;;;2.50;99.90;1.60;99356.00;;;;4949069;28;89175;-65
2023/11/25 07:42:30;;;;;;;0.83;0.57;;;1.90;99.90;1.60;99362.00;;;;4949127;28;88979;-65
2023/11/25 07:44:55;;;;;;;6.33;1.10;;;1.80;99.90;1.60;99363.00;;;;4945499;28;87983;-65
2023/11/25 07:47:22;;;;;;;6.37;1.77;;;1.80;99.90;1.60;99360.00;;;;4949476;28;108968;-66
2023/11/25 07:49:50;;;;;;;5.63;1.67;;;1.90;99.90;1.60;99372.00;;;;4947111;28;88720;-67
2023/11/25 07:52:16;;;;;;;5.30;1.03;;;1.90;99.90;1.60;99371.00;;;;4950378;28;88979;-68
2023/11/25 07:54:42;;;;;;;1.53;0.70;;;1.90;99.90;1.60;99363.00;;;;4938770;28;110038;-68
2023/11/25 07:57:08;;;;;;;1.53;1.20;;;1.90;99.90;1.60;99366.00;;;;4949271;28;88175;-67
2023/11/25 07:59:34;;;;;;;0.83;0.83;;;2.00;99.90;1.60;99367.00;;;;4946514;28;88869;-66
2023/11/25 08:02:00;;;;;;;1.53;0.80;;;1.90;99.90;1.60;99382.00;;;;4947433;28;89085;-66
2023/11/25 08:04:26;;;;;;;1.63;0.83;;;1.80;99.90;1.50;99372.00;;;;4951280;28;96719;-66
2023/11/25 08:06:51;;;;;;;0.87;0.73;;;1.80;99.90;1.50;99375.00;;;;4949684;28;109025;-67
2023/11/25 08:09:18;;;;;;;1.63;0.70;;;1.80;99.90;1.50;99385.00;;;;4946907;28;118036;-67
2023/11/25 08:11:44;;;;;;;0.80;0.80;;;1.90;99.90;1.60;99375.00;;;;4947130;28;88572;-68
2023/11/25 08:14:10;;;;;;;1.37;1.00;;;1.70;99.90;1.60;99379.00;;;;4948343;28;110313;-67
2023/11/25 08:16:35;;;;;;;3.50;0.90;;;1.90;99.90;1.60;99385.00;;;;4945640;28;107613;-66
2023/11/25 08:19:01;;;;;;;0.50;0.50;;;1.90;99.90;1.70;99374.00;;;;4952867;28;88557;-65
2023/11/25 08:21:27;;;;;;;2.33;0.97;;;2.60;99.90;1.70;99364.00;;;;4945315;28;117455;-65
2023/11/25 08:23:53;;;;;;;5.83;1.50;;;1.90;99.90;1.60;99374.00;;;;4950801;28;88077;-66
2023/11/25 08:26:27;;;;;;;1.73;0.90;;;1.90;99.90;1.60;99381.00;;;;4947955;28;88947;-66
2023/11/25 08:28:54;;;;;;;0.80;0.80;;;1.90;99.90;1.60;99384.00;;;;4951687;28;88855;-67
2023/11/25 08:31:21;;;;;;;3.20;0.60;;;1.90;99.90;1.50;99381.00;;;;4946755;28;88186;-66
2023/11/25 08:33:47;;;;;;;1.07;0.97;;;1.90;99.90;1.70;99387.00;;;;4946437;28;88318;-66
2023/11/25 08:36:14;;;;;;;2.93;1.23;;;1.90;99.90;2.00;99399.00;;;;4948460;28;107083;-69
2023/11/25 08:38:40;;;;;;;1.93;0.80;;;2.10;99.90;2.20;99398.00;;;;4952761;28;88065;-66
2023/11/25 08:41:07;;;;;;;1.47;1.20;;;2.30;99.90;2.50;99387.00;;;;4950678;28;108349;-67
2023/11/25 08:43:37;;;;;;;4.03;1.10;;;2.60;99.90;2.70;99404.00;;;;4956561;28;87475;-66
2023/11/25 08:46:03;;;;;;;3.93;1.10;;;2.90;99.90;3.00;99401.00;;;;4960087;28;97461;-66
2023/11/25 08:48:29;;;;;;;1.83;0.97;;;2.90;99.90;3.30;99401.00;;;;4954400;28;88970;-66
2023/11/25 08:50:56;;;;;;;2.20;1.10;;;3.40;99.90;3.60;99398.00;;;;4949023;28;89296;-66
2023/11/25 08:53:23;;;;;;;2.00;0.80;;;3.70;99.90;3.80;99393.00;;;;4949413;28;87952;-66
2023/11/25 08:55:49;;;;;;;3.80;0.80;;;4.00;99.90;4.00;99395.00;;;;4950745;28;87997;-68
2023/11/25 08:58:15;;;;;;;0.73;0.67;;;4.80;99.90;4.00;99387.00;;;;4962521;28;88016;-66
2023/11/25 09:00:40;;;;;;;4.20;0.70;;;4.70;99.90;3.90;99393.00;;;;4947782;28;104447;-66
2023/11/25 09:03:09;;;;;;;0.50;0.50;;;4.00;99.90;3.80;99392.00;;;;4945602;28;108827;-66
2023/11/25 09:05:40;;;;;;;0.67;0.47;;;4.20;99.90;3.70;99391.00;;;;4950007;28;87972;-66
2023/11/25 09:08:08;;;;;;;1.97;0.83;;;4.70;99.90;3.70;99386.00;;;;4950648;28;87169;-66
2023/11/25 09:10:35;;;;;;;0.60;0.60;;;3.90;99.90;3.60;99385.00;;;;4952009;28;87925;-66
2023/11/25 09:13:02;;;;;;;3.17;0.83;;;3.90;99.90;3.50;99388.00;;;;4949285;28;87843;-68
2023/11/25 09:15:28;;;;;;;2.43;1.57;;;3.80;99.90;3.40;99393.00;;;;4949112;28;88870;-68
2023/11/25 09:17:53;;;;;;;0.53;0.53;;;3.80;99.90;3.30;99386.00;;;;4952788;28;118440;-68
2023/11/25 09:20:21;;;;;;;9.57;1.73;;;3.50;99.90;3.20;99378.00;;;;4948200;28;116321;-67
2023/11/25 09:22:47;;;;;;;1.80;1.00;;;3.50;99.90;3.20;99393.00;;;;4946983;28;87884;-69
2023/11/25 09:25:14;;;;;;;1.03;0.83;;;3.40;99.90;3.20;99383.00;;;;4946056;28;99702;-66
2023/11/25 09:27:46;;;;;;;2.07;0.93;;;3.40;99.90;3.20;99386.00;;;;4947928;28;89416;-66
2023/11/25 09:30:14;;;;;;;0.70;0.57;;;3.40;99.90;3.20;99391.00;;;;4946867;28;88624;-68
2023/11/25 09:32:44;;;;;;;0.80;0.70;;;3.50;99.90;3.20;99392.00;;;;4945938;28;87255;-68
2023/11/25 09:35:11;;;;;;;1.13;0.90;;;3.40;99.90;3.20;99386.00;;;;4948569;28;87907;-66
2023/11/25 09:37:38;;;;;;;2.13;1.10;;;3.40;99.90;3.20;99374.00;;;;4945833;28;89573;-66
2023/11/25 09:40:05;;;;;;;1.27;1.07;;;3.80;99.90;3.20;99365.00;;;;4948701;28;89271;-66
2023/11/25 09:42:32;;;;;;;1.23;0.87;;;3.50;99.90;3.40;99365.00;;;;4949124;28;87886;-67
2023/11/25 09:45:02;;;;;;;0.77;0.77;;;3.50;99.90;3.80;99364.00;;;;4949897;28;87932;-67
2023/11/25 09:47:28;;;;;;;1.07;0.70;;;3.80;99.90;4.20;99359.00;;;;4951697;28;89144;-66
2023/11/25 09:49:54;;;;;;;1.33;0.90;;;4.20;99.90;4.70;99359.00;;;;4948683;28;116894;-68
2023/11/25 09:52:20;;;;;;;0.83;0.53;;;4.70;99.90;5.00;99363.00;;;;4944961;28;109858;-67
2023/11/25 09:54:46;;;;;;;3.80;1.07;;;5.00;99.90;5.50;99348.00;;;;4947071;28;109276;-66
2023/11/25 09:57:20;;;;;;;4.30;1.20;;;5.30;99.90;6.00;99356.00;;;;4947671;28;89251;-66
2023/11/25 09:59:46;;;;;;;0.67;0.53;;;5.90;99.90;6.30;99348.00;;;;4963204;28;88038;-66
2023/11/25 10:02:16;;;;;;;1.70;1.27;;;6.30;99.90;6.40;99353.00;;;;4951511;28;87955;-66
2023/11/25 10:04:43;;;;;;;2.57;0.93;;;7.20;99.90;6.40;99345.00;;;;4944425;28;90988;-66
2023/11/25 10:07:11;;;;;;;1.77;0.70;;;6.50;99.90;6.20;99358.00;;;;4944819;28;89137;-66
2023/11/25 10:09:41;;;;;;;0.40;0.40;;;6.40;99.90;6.10;99352.00;;;;4949364;28;88813;-66
2023/11/25 10:12:09;;;;;;;0.97;0.50;;;6.30;99.90;5.90;99356.00;;;;4948772;28;88489;-66
2023/11/25 10:14:43;;;;;;;0.80;0.80;;;6.20;99.90;5.80;99357.00;;;;4948168;28;87893;-66
2023/11/25 10:17:21;;;;;;;1.23;0.87;;;6.10;99.90;5.60;99363.00;;;;4945930;28;88618;-66
2023/11/25 10:19:47;;;;;;;1.57;0.50;;;6.20;99.90;5.50;99357.00;;;;4944981;28;88083;-66
2023/11/25 10:22:14;;;;;;;2.63;1.03;;;5.70;99.90;5.40;99351.00;;;;4948040;28;110094;-65
2023/11/25 10:24:52;;;;;;;1.07;0.50;;;5.90;99.90;5.30;99339.00;;;;4947517;28;87966;-67
2023/11/25 10:27:23;;;;;;;0.30;0.30;;;5.60;99.90;5.20;99337.00;;;;4948774;28;89684;-67
2023/11/25 10:29:50;;;;;;;0.80;0.70;;;5.40;99.90;5.00;99326.00;;;;4945699;28;88721;-67
2023/11/25 10:32:16;;;;;;;0.33;0.33;;;5.30;99.90;4.90;99331.00;;;;4946977;28;88067;-68
2023/11/25 10:34:41;;;;;;;1.13;0.60;;;5.20;99.90;4.70;99336.00;;;;4945349;28;109061;-68
2023/11/25 10:37:09;;;;;;;0.50;0.40;;;5.00;99.90;4.60;99333.00;;;;4947613;28;88305;-68
2023/11/25 10:39:35;;;;;;;3.30;1.20;;;4.90;99.90;4.50;99327.00;;;;4948033;28;87976;-69
2023/11/25 10:42:07;;;;;;;1.47;0.83;;;5.00;99.90;4.50;99337.00;;;;4949022;28;87785;-69
2023/11/25 10:44:42;;;;;;;0.73;0.67;;;4.70;99.90;4.50;99323.00;;;;4931942;28;87916;-67
2023/11/25 10:47:28;;;;;;;2.90;1.00;;;4.70;99.90;4.40;99342.00;;;;4948679;28;87906;-68
2023/11/25 10:49:54;;;;;;;1.23;0.70;;;5.40;99.90;4.40;99325.00;;;;4947143;28;88304;-70
2023/11/25 10:52:21;;;;;;;0.93;0.83;;;4.60;99.90;4.40;99326.00;;;;4945365;28;87867;-69
2023/11/25 10:54:50;;;;;;;1.37;1.17;;;4.60;99.90;4.30;99327.00;;;;4947017;28;100249;-70
2023/11/25 10:57:18;;;;;;;0.60;0.57;;;4.50;99.90;4.20;99324.00;;;;4962377;28;88219;-68
2023/11/25 10:59:45;;;;;;;2.73;1.10;;;4.60;99.90;4.20;99320.00;;;;4950417;28;88168;-67
2023/11/25 11:02:25;;;;;;;1.50;0.90;;;4.40;99.90;4.20;99306.00;;;;4946063;28;113630;-69
2023/11/25 11:04:58;;;;;;;1.67;1.43;;;4.70;99.90;4.10;99315.00;;;;4959761;28;88002;-67
2023/11/25 11:07:26;;;;;;;1.07;0.93;;;4.40;99.90;4.10;99308.00;;;;4949422;28;89212;-67
2023/11/25 11:09:57;;;;;;;1.07;0.77;;;4.40;99.90;4.10;99310.00;;;;4944098;28;88320;-67